Avoca, PA

3:42 AM EDT on March 27, 2015 (GMT -0400)
West Wyoming | | Change Station
CLOSE
Current Station
Personal Weather Station
Location: Wyoming, PA
Elevation: 745 ft
Nearby Weather Stations

Elev 745 ft 41.32 °N, 75.85 °W | Updated 9 minutes ago

Overcast
Overcast
36.0 °F
Feels Like 36 °F
N
0.0
Wind Variable Wind from SSE

Today
High -- | Low -- °F
--% Chance of Precip.
Yesterday
High -- | Low -- °F
Precip. -- in
6:55 AM 7:22 PM
Waxing Crescent, 50% visible
Pressure 29.77 in
Visibility 8.0 miles
Clouds Overcast 1400 ft
Windchill 36 °F
Dew Point 35 °F
Humidity 95%
Rainfall 0.00 in
Snow Depth Not available.
UV 0 out of 12
Pollen 6.50 out of 12
Air Quality Not available.
Flu Activity Not available.
SPECI KAVP 270721Z AUTO 35004KT 8SM OVC014 03/00 A2977 RMK AO2 T00330000 $

More Conditions Fewer Conditions

Pressure 29.77 in
Visibility 8.0 miles
Clouds Overcast 1400 ft
Windchill 36 °F
Dew Point 35 °F
Humidity 95%
Rainfall 0.00 in
Snow Depth Not available.
UV 0 out of 12
Pollen 6.50 out of 12
Air Quality Not available.
Flu Activity Not available.
SPECI KAVP 270721Z AUTO 35004KT 8SM OVC014 03/00 A2977 RMK AO2 T00330000 $

More Conditions Fewer Conditions

10-Day Weather Forecast

Almanac

Astronomy

Mar. 27, 2015 Rise Set
Actual Time
Civil Twilight
Nautical Twilight
Astronomical Twilight
Moon
Length of Visible Light
Length of Day
Tomorrow will be .
, % of the Moon is Illuminated

Today's Extremes

State Highs State Lows

Community

WunderPhotos

Upload Photos

1,808,702 photos uploaded!

WunderBlogs® & News

Nearby

Air Quality

  Air Quality AQ Index Pollutant
Not available.

Snow Depth

Station Depth Elevation

Earthquake Activity

City Distance Mag. Time & Date
Minimum magnitude displayed is 2.5.

Coastal Water Temperatures

Place Temperature

Stations

Nearby Weather Stations

Station Location Temp. Windchill Dew Point Humidity Wind Precip. Elev Updated Type